Time;durP1;ratioP1;P1;durP2;ratioP2;P2;SDS_P1;SDS_P2;PMS_P1;PMS_P2;Temp;Humidity;BMP_temperature;BMP_pressure;BME280_temperature;BME280_humidity;BME280_pressure;Samples;Min_cycle;Max_cycle;Signal;HPM_P1;HPM_P2
2021/10/16 00:00:23;;;;;;;;;7.00;5.25;;;;;23.31;41.00;102033.59;5076575;28;46118;-67
2021/10/16 00:02:49;;;;;;;;;5.00;5.00;;;;;23.35;40.67;102045.56;5076467;28;47300;-66
2021/10/16 00:05:14;;;;;;;;;5.75;5.50;;;;;23.35;40.60;102042.06;5076042;28;45507;-67
2021/10/16 00:07:40;;;;;;;;;5.00;5.00;;;;;23.35;40.58;102042.91;5075918;28;45286;-66
2021/10/16 00:10:06;;;;;;;;;6.50;6.00;;;;;23.35;41.10;102042.06;5078647;28;45404;-66
2021/10/16 00:12:31;;;;;;;;;7.00;5.25;;;;;23.33;40.89;102039.56;5076194;27;47138;-66
2021/10/16 00:14:57;;;;;;;;;5.25;5.25;;;;;23.36;41.12;102038.44;5074988;28;45440;-67
2021/10/16 00:17:22;;;;;;;;;5.25;5.25;;;;;23.36;40.87;102041.09;5076325;28;45779;-67
2021/10/16 00:19:47;;;;;;;;;5.00;5.00;;;;;23.36;41.31;102043.72;5076694;28;45550;-67
2021/10/16 00:22:13;;;;;;;;;4.75;4.75;;;;;23.36;41.38;102036.59;5077469;28;46047;-67
2021/10/16 00:24:38;;;;;;;;;7.50;7.50;;;;;23.35;41.05;102037.59;5075009;28;45207;-67
2021/10/16 00:27:04;;;;;;;;;6.00;6.00;;;;;23.35;40.86;102040.25;5076396;28;45461;-67
2021/10/16 00:29:30;;;;;;;;;7.00;6.00;;;;;23.30;41.27;102031.91;5074964;28;45597;-67
2021/10/16 00:31:56;;;;;;;;;5.75;5.75;;;;;23.35;41.10;102034.09;5075926;28;46176;-67
2021/10/16 00:34:21;;;;;;;;;5.50;5.50;;;;;23.35;41.41;102032.28;5077060;28;45351;-67
2021/10/16 00:36:46;;;;;;;;;6.25;6.25;;;;;23.35;40.88;102034.94;5077210;28;45321;-66
2021/10/16 00:39:12;;;;;;;;;5.00;5.00;;;;;23.35;41.57;102031.44;5075981;28;45535;-67
2021/10/16 00:41:37;;;;;;;;;7.00;7.00;;;;;23.35;40.93;102028.78;5075601;28;46971;-67
2021/10/16 00:44:16;;;;;;;;;7.00;6.00;;;;;23.35;40.94;102029.63;5076086;28;45559;-66
2021/10/16 00:46:42;;;;;;;;;6.50;5.00;;;;;23.35;41.02;102034.09;5060234;28;45281;-66
2021/10/16 00:49:08;;;;;;;;;6.00;6.00;;;;;23.34;41.31;102030.59;5073589;28;45414;-66
2021/10/16 00:51:34;;;;;;;;;6.50;6.50;;;;;23.35;41.48;102032.28;5073970;28;46200;-67
2021/10/16 00:54:00;;;;;;;;;5.25;5.25;;;;;23.30;41.46;102018.66;5076318;27;45534;-67
2021/10/16 00:56:26;;;;;;;;;7.25;6.75;;;;;23.33;41.42;102026.28;5089813;27;45437;-67
2021/10/16 00:58:54;;;;;;;;;7.25;6.00;;;;;23.32;41.05;102021.13;5081003;27;45650;-66
2021/10/16 01:01:20;;;;;;;;;6.25;6.25;;;;;23.28;41.50;102018.81;5075621;28;46847;-66
2021/10/16 01:03:45;;;;;;;;;6.00;6.00;;;;;23.36;41.17;102031.28;5074978;28;45423;-66
2021/10/16 01:06:11;;;;;;;;;5.75;5.00;;;;;23.36;41.08;102022.50;5075327;28;45699;-66
2021/10/16 01:08:37;;;;;;;;;8.00;6.00;;;;;23.25;41.27;102005.84;5075549;28;45247;-66
2021/10/16 01:11:03;;;;;;;;;5.00;5.00;;;;;23.28;41.12;102007.34;5057428;28;46950;-66
2021/10/16 01:13:29;;;;;;;;;5.75;5.75;;;;;23.38;41.34;102031.13;5075470;28;45317;-66
2021/10/16 01:15:56;;;;;;;;;8.50;6.00;;;;;23.35;41.38;102020.81;5077512;28;45386;-66
2021/10/16 01:18:22;;;;;;;;;5.00;5.00;;;;;23.37;41.38;102024.97;5074818;28;45610;-66
2021/10/16 01:20:57;;;;;;;;;8.50;5.75;;;;;23.37;41.23;102017.00;5074867;28;45311;-66
2021/10/16 01:23:22;;;;;;;;;5.00;5.00;;;;;23.37;40.61;102021.47;5075465;28;47948;-66
2021/10/16 01:25:50;;;;;;;;;6.00;6.00;;;;;23.38;40.93;102021.34;5075429;28;45304;-66
2021/10/16 01:28:15;;;;;;;;;6.50;6.50;;;;;23.37;40.93;102011.69;5076866;28;45279;-66
2021/10/16 01:30:41;;;;;;;;;7.50;6.00;;;;;23.37;40.84;102014.34;5074453;28;45909;-66
2021/10/16 01:33:06;;;;;;;;;5.50;5.50;;;;;23.37;41.02;102016.16;5073490;28;45351;-66
2021/10/16 01:35:32;;;;;;;;;6.00;6.00;;;;;23.36;40.72;102015.34;5074850;28;45344;-66
2021/10/16 01:37:57;;;;;;;;;8.00;8.00;;;;;23.27;41.35;101995.91;5075405;28;45237;-66
2021/10/16 01:40:22;;;;;;;;;6.00;5.75;;;;;23.23;40.98;101991.91;5075660;28;46007;-66
2021/10/16 01:42:49;;;;;;;;;6.75;6.25;;;;;23.35;40.80;102008.38;5074670;28;45469;-66
2021/10/16 01:45:18;;;;;;;;;5.50;5.50;;;;;23.34;40.79;102004.03;5074875;28;45562;-66
2021/10/16 01:47:48;;;;;;;;;5.00;5.00;;;;;23.36;41.31;102003.91;5074864;28;45551;-66
2021/10/16 01:50:14;;;;;;;;;4.75;4.75;;;;;23.28;41.31;101997.56;5074350;28;46374;-66
2021/10/16 01:52:39;;;;;;;;;6.00;6.00;;;;;23.30;40.89;101997.41;5074955;28;45587;-66
2021/10/16 01:55:05;;;;;;;;;5.50;5.50;;;;;23.33;40.72;101999.75;5058655;28;45426;-66
2021/10/16 01:57:30;;;;;;;;;9.00;8.00;;;;;23.31;40.91;101999.06;5055016;28;45496;-66
2021/10/16 01:59:55;;;;;;;;;5.00;5.00;;;;;23.34;41.28;101997.94;5074761;28;46211;-66
2021/10/16 02:02:21;;;;;;;;;5.00;5.00;;;;;23.31;40.69;101995.59;5070249;28;45468;-66
2021/10/16 02:04:46;;;;;;;;;6.25;5.75;;;;;23.34;41.27;101998.72;5057682;28;45531;-67
2021/10/16 02:07:11;;;;;;;;;7.75;5.00;;;;;23.33;40.88;101998.91;5076436;28;45381;-66
2021/10/16 02:09:37;;;;;;;;;5.50;5.25;;;;;23.33;41.33;101993.59;5075041;28;46443;-67
2021/10/16 02:12:02;;;;;;;;;3.75;3.75;;;;;23.33;40.79;101997.09;5072843;28;45487;-66
2021/10/16 02:14:28;;;;;;;;;5.00;5.00;;;;;23.31;41.34;101985.81;5074380;28;45340;-66
2021/10/16 02:16:53;;;;;;;;;6.50;6.00;;;;;23.32;40.79;101990.09;5074735;28;45498;-66
2021/10/16 02:19:19;;;;;;;;;6.00;6.00;;;;;23.32;41.14;101992.75;5075027;28;46970;-66
2021/10/16 02:21:44;;;;;;;;;5.25;5.25;;;;;23.31;40.81;101993.78;5074254;28;45241;-66
2021/10/16 02:24:09;;;;;;;;;6.00;5.75;;;;;23.31;41.18;101992.94;5074160;28;45395;-66
2021/10/16 02:26:35;;;;;;;;;6.50;6.50;;;;;23.31;41.25;101993.78;5074065;28;45610;-66
2021/10/16 02:29:00;;;;;;;;;7.75;6.25;;;;;23.30;40.78;101984.13;5074400;28;46065;-66
2021/10/16 02:31:26;;;;;;;;;8.50;7.25;;;;;23.32;41.19;101994.56;5072640;27;45529;-66
2021/10/16 02:33:51;;;;;;;;;6.50;6.00;;;;;23.27;40.82;101984.44;5073899;28;45828;-66
2021/10/16 02:36:17;;;;;;;;;7.75;7.00;;;;;23.30;41.19;101984.13;5074342;28;45514;-66
2021/10/16 02:38:42;;;;;;;;;5.25;5.25;;;;;23.28;41.18;101980.81;5074116;28;45273;-66
2021/10/16 02:41:07;;;;;;;;;7.00;7.00;;;;;23.33;40.72;101988.28;5074186;28;45465;-66
2021/10/16 02:43:33;;;;;;;;;5.25;5.25;;;;;23.32;40.64;101987.44;5074362;28;45518;-67
2021/10/16 02:45:58;;;;;;;;;7.00;7.00;;;;;23.33;40.97;101985.63;5076109;28;45331;-66
2021/10/16 02:48:23;;;;;;;;;5.50;5.00;;;;;23.24;40.66;101974.97;5073925;28;45727;-66
2021/10/16 02:50:49;;;;;;;;;6.00;5.25;;;;;23.32;40.77;101984.78;5072512;28;45521;-66
2021/10/16 02:53:14;;;;;;;;;5.25;5.00;;;;;23.23;40.90;101968.03;5073323;28;45482;-66
2021/10/16 02:55:39;;;;;;;;;6.75;6.75;;;;;23.33;40.72;101986.47;5038875;28;45446;-67
2021/10/16 02:58:05;;;;;;;;;6.75;6.75;;;;;23.34;40.51;101989.97;5090971;27;56699;-66
2021/10/16 03:00:30;;;;;;;;;6.25;5.00;;;;;23.34;40.72;101984.66;5072159;28;45352;-66
2021/10/16 03:02:55;;;;;;;;;7.25;6.00;;;;;23.34;40.65;101982.00;5073532;27;45479;-66
2021/10/16 03:05:21;;;;;;;;;6.00;6.00;;;;;23.34;40.84;101982.00;5073897;28;45434;-66
2021/10/16 03:07:46;;;;;;;;;7.75;7.00;;;;;23.33;40.57;101988.28;5073941;28;45361;-66
2021/10/16 03:10:11;;;;;;;;;7.00;5.00;;;;;23.33;40.95;101983.81;5075791;28;45430;-66
2021/10/16 03:12:36;;;;;;;;;5.00;5.00;;;;;23.33;41.10;101985.63;5072350;28;45560;-66
2021/10/16 03:15:03;;;;;;;;;8.00;6.00;;;;;23.33;40.76;101977.66;5073478;28;45394;-66
2021/10/16 03:17:28;;;;;;;;;6.25;6.25;;;;;23.33;40.57;101972.34;5073278;28;46986;-66
2021/10/16 03:19:54;;;;;;;;;5.25;5.25;;;;;23.32;41.15;101976.81;5073570;28;46247;-66
2021/10/16 03:22:19;;;;;;;;;6.00;6.00;;;;;23.32;41.21;101976.81;5075163;28;45316;-66
2021/10/16 03:24:45;;;;;;;;;4.75;4.00;;;;;23.28;41.04;101979.00;5074570;28;45469;-66
2021/10/16 03:27:10;;;;;;;;;6.00;6.00;;;;;23.32;40.57;101981.28;5073504;28;47067;-66
2021/10/16 03:29:35;;;;;;;;;8.00;7.00;;;;;23.29;40.74;101977.97;5071876;28;45317;-66
2021/10/16 03:32:01;;;;;;;;;6.50;6.50;;;;;23.31;40.62;101979.66;5073112;28;45532;-66
2021/10/16 03:34:27;;;;;;;;;4.50;4.50;;;;;23.24;40.78;101968.81;5073803;28;45411;-66
2021/10/16 03:36:54;;;;;;;;;5.50;5.50;;;;;23.29;40.51;101975.31;5073452;28;45389;-66
2021/10/16 03:39:19;;;;;;;;;5.00;5.00;;;;;23.21;40.74;101963.88;5071755;28;45583;-66
2021/10/16 03:41:45;;;;;;;;;8.00;8.00;;;;;23.29;40.63;101979.78;5073314;28;45397;-66
2021/10/16 03:44:10;;;;;;;;;7.25;5.25;;;;;23.28;40.92;101984.31;5073479;28;45485;-66
2021/10/16 03:46:35;;;;;;;;;5.25;5.00;;;;;23.28;41.04;101973.69;5073082;28;46277;-66
2021/10/16 03:49:01;;;;;;;;;7.00;6.00;;;;;23.29;40.79;101985.94;5075115;28;45376;-66
2021/10/16 03:51:26;;;;;;;;;5.75;5.75;;;;;23.21;40.67;101970.00;5073454;28;45391;-66
2021/10/16 03:53:52;;;;;;;;;5.50;5.00;;;;;23.28;40.60;101981.66;5053289;28;49729;-66
2021/10/16 03:56:17;;;;;;;;;6.75;6.75;;;;;23.29;41.12;101985.09;5073301;28;46369;-66
2021/10/16 03:58:42;;;;;;;;;6.00;6.00;;;;;23.28;40.91;101976.34;5073377;28;45499;-66
2021/10/16 04:01:08;;;;;;;;;6.25;6.25;;;;;23.28;40.58;101971.03;5074771;28;45422;-66
2021/10/16 04:03:35;;;;;;;;;9.25;7.25;;;;;23.28;40.92;101970.19;5074320;28;45637;-67
2021/10/16 04:06:01;;;;;;;;;7.25;5.25;;;;;23.21;41.04;101966.53;5076533;28;47440;-66
2021/10/16 04:08:26;;;;;;;;;4.75;4.75;;;;;23.28;40.57;101967.53;5074941;28;45300;-66
2021/10/16 04:10:51;;;;;;;;;4.50;4.50;;;;;23.28;40.85;101970.19;5076860;28;45560;-66
2021/10/16 04:13:17;;;;;;;;;6.00;5.00;;;;;23.28;40.63;101963.06;5077893;28;45468;-66
2021/10/16 04:15:42;;;;;;;;;7.75;6.75;;;;;23.28;40.89;101965.72;5076671;28;46848;-66
2021/10/16 04:18:08;;;;;;;;;5.25;5.25;;;;;23.29;40.89;101966.53;5074700;28;45309;-66
2021/10/16 04:20:33;;;;;;;;;6.00;6.00;;;;;22.92;40.50;101913.66;5076424;28;45876;-66
2021/10/16 04:22:58;;;;;;;;;9.50;4.75;;;;;23.29;40.98;101972.66;5076722;28;45431;-66
2021/10/16 04:25:24;;;;;;;;;8.00;5.50;;;;;23.25;41.01;101967.84;5076993;28;46422;-66
2021/10/16 04:27:50;;;;;;;;;6.25;5.50;;;;;23.30;40.53;101968.19;5077646;28;45388;-66
2021/10/16 04:30:17;;;;;;;;;3.75;3.75;;;;;23.29;40.50;101967.34;5076062;28;45435;-66
2021/10/16 04:32:42;;;;;;;;;6.25;6.25;;;;;23.23;40.40;101953.91;5075834;28;45556;-66
2021/10/16 04:35:09;;;;;;;;;6.50;5.50;;;;;23.23;41.00;101957.41;5076041;28;45918;-67
2021/10/16 04:37:35;;;;;;;;;7.50;7.25;;;;;23.29;40.37;101962.03;5075486;28;45409;-66
2021/10/16 04:40:10;;;;;;;;;7.00;6.00;;;;;23.27;41.10;101960.53;5077068;28;45533;-66
2021/10/16 04:42:35;;;;;;;;;6.50;6.00;;;;;23.28;40.80;101962.22;5074232;28;45592;-66
2021/10/16 04:45:01;;;;;;;;;5.50;5.00;;;;;23.30;40.88;101960.22;5075363;28;47137;-67
2021/10/16 04:47:26;;;;;;;;;8.50;5.00;;;;;23.22;40.83;101950.41;5074339;28;45503;-66
2021/10/16 04:49:52;;;;;;;;;5.00;5.00;;;;;23.27;40.55;101960.53;5075366;28;45466;-66
2021/10/16 04:52:17;;;;;;;;;6.00;5.00;;;;;23.17;40.97;101939.44;5077604;28;45397;-66
2021/10/16 04:54:42;;;;;;;;;4.75;4.75;;;;;23.28;40.33;101959.56;5076180;28;45371;-66
2021/10/16 04:57:08;;;;;;;;;6.75;6.00;;;;;23.27;40.70;101953.41;5074174;28;45476;-66
2021/10/16 04:59:33;;;;;;;;;4.25;4.25;;;;;23.27;40.88;101957.88;5075469;27;45263;-66
2021/10/16 05:01:58;;;;;;;;;6.25;5.00;;;;;23.27;40.40;101957.88;5075910;28;45300;-66
2021/10/16 05:04:24;;;;;;;;;5.25;5.25;;;;;23.27;40.37;101958.72;5076274;28;46147;-66
2021/10/16 05:06:49;;;;;;;;;5.25;5.25;;;;;23.27;40.33;101961.38;5076271;28;45522;-67
2021/10/16 05:09:15;;;;;;;;;6.75;6.25;;;;;23.16;40.63;101940.47;5075705;28;45472;-66
2021/10/16 05:11:40;;;;;;;;;6.50;6.50;;;;;23.26;40.98;101957.06;5075744;28;45315;-66
2021/10/16 05:14:07;;;;;;;;;6.50;5.25;;;;;23.21;40.50;101950.59;5075126;28;46093;-66
2021/10/16 05:16:32;;;;;;;;;7.00;7.00;;;;;23.27;40.49;101968.50;5075045;28;45344;-66
2021/10/16 05:18:58;;;;;;;;;4.25;4.25;;;;;23.26;40.88;101972.19;5077530;28;45422;-66
2021/10/16 05:21:23;;;;;;;;;4.00;4.00;;;;;23.26;40.85;101980.94;5075521;28;45460;-66
2021/10/16 05:23:48;;;;;;;;;5.00;5.00;;;;;23.25;40.33;101971.34;5075275;28;46057;-66
2021/10/16 05:26:14;;;;;;;;;6.75;5.50;;;;;23.25;40.86;101971.34;5069845;28;45529;-66
2021/10/16 05:28:39;;;;;;;;;5.00;4.50;;;;;23.23;40.45;101972.50;5074944;28;45396;-66
2021/10/16 05:31:04;;;;;;;;;4.75;4.75;;;;;22.90;40.57;101920.13;5077254;28;45229;-66
2021/10/16 05:33:30;;;;;;;;;7.25;6.00;;;;;23.23;40.96;101970.69;5075105;28;45505;-66
2021/10/16 05:35:55;;;;;;;;;5.50;4.50;;;;;23.13;40.47;101960.19;5073185;28;45391;-66
2021/10/16 05:38:20;;;;;;;;;4.75;4.00;;;;;23.23;40.36;101978.63;5074687;28;45542;-66
2021/10/16 05:40:46;;;;;;;;;6.00;5.50;;;;;23.24;40.79;101976.78;5075379;28;45250;-67
2021/10/16 05:43:12;;;;;;;;;4.00;4.00;;;;;23.22;40.67;101970.81;5076775;28;45919;-67
2021/10/16 05:45:37;;;;;;;;;4.25;3.75;;;;;23.25;40.32;101975.81;5073616;28;45392;-66
2021/10/16 05:48:03;;;;;;;;;4.00;4.00;;;;;23.25;40.84;101975.81;5074999;28;45392;-66
2021/10/16 05:50:30;;;;;;;;;7.75;4.50;;;;;23.25;40.70;101978.47;5073428;28;45450;-66
2021/10/16 05:52:55;;;;;;;;;4.00;4.00;;;;;23.26;40.77;101972.97;5074978;28;45522;-66
2021/10/16 05:55:21;;;;;;;;;5.75;5.50;;;;;23.25;40.59;101971.34;5075591;28;45371;-66
2021/10/16 05:57:46;;;;;;;;;5.75;4.25;;;;;23.20;40.01;101963.03;5075592;28;45700;-66
2021/10/16 06:00:12;;;;;;;;;5.75;4.75;;;;;23.26;40.77;101970.31;5055135;28;45530;-66
2021/10/16 06:02:38;;;;;;;;;4.25;4.25;;;;;23.22;40.53;101961.03;5074494;28;49579;-66
2021/10/16 06:05:03;;;;;;;;;4.00;4.00;;;;;23.22;40.06;101961.03;5056498;28;45802;-67
2021/10/16 06:07:29;;;;;;;;;5.25;5.25;;;;;23.27;40.29;101979.97;5077623;28;45829;-66
2021/10/16 06:09:54;;;;;;;;;5.50;5.00;;;;;23.27;40.53;101973.81;5076642;28;45479;-66
2021/10/16 06:12:19;;;;;;;;;4.25;4.25;;;;;23.27;40.46;101965.84;5074416;28;45491;-66
2021/10/16 06:14:45;;;;;;;;;8.00;5.00;;;;;23.21;40.23;101964.69;5072908;28;45617;-66
2021/10/16 06:17:10;;;;;;;;;4.50;4.50;;;;;23.27;40.63;101972.00;5074841;28;45257;-66
2021/10/16 06:19:36;;;;;;;;;5.50;5.25;;;;;23.26;40.20;101970.31;5075014;28;45747;-66
2021/10/16 06:22:02;;;;;;;;;5.75;5.75;;;;;23.27;40.43;101973.81;5076778;28;45987;-66
2021/10/16 06:24:27;;;;;;;;;5.00;5.00;;;;;23.23;40.28;101964.53;5075634;28;45366;-66
2021/10/16 06:26:53;;;;;;;;;5.00;4.50;;;;;23.27;40.38;101971.16;5073770;28;45376;-66
2021/10/16 06:29:18;;;;;;;;;4.75;4.75;;;;;23.26;40.56;101969.53;5072633;28;45412;-66
2021/10/16 06:31:43;;;;;;;;;4.00;4.00;;;;;23.26;40.23;101974.84;5074403;28;46361;-66
2021/10/16 06:34:09;;;;;;;;;4.50;4.25;;;;;23.25;40.18;101979.31;5070535;28;45478;-66
2021/10/16 06:36:35;;;;;;;;;5.00;4.50;;;;;23.25;39.94;101973.16;5073847;28;45470;-67
2021/10/16 06:39:00;;;;;;;;;6.00;5.00;;;;;23.22;40.02;101973.47;5072207;28;45451;-68
2021/10/16 06:41:26;;;;;;;;;3.50;3.50;;;;;23.20;40.31;101973.66;5073363;28;46058;-67
2021/10/16 06:43:51;;;;;;;;;7.00;6.00;;;;;23.21;40.22;101977.97;5072540;28;45408;-67
2021/10/16 06:46:17;;;;;;;;;5.00;5.00;;;;;23.23;40.12;101985.78;5075835;28;45414;-67
2021/10/16 06:48:42;;;;;;;;;5.00;4.75;;;;;23.23;40.41;101983.94;5074693;28;45560;-67
2021/10/16 06:51:08;;;;;;;;;5.75;5.75;;;;;23.26;40.63;101998.72;5074096;28;45567;-67
2021/10/16 06:53:34;;;;;;;;;3.25;3.25;;;;;23.27;40.13;101993.25;5072017;28;45312;-67
2021/10/16 06:56:00;;;;;;;;;5.00;5.00;;;;;23.27;40.65;101987.09;5051566;27;45689;-67
2021/10/16 06:58:25;;;;;;;;;5.00;5.00;;;;;23.28;40.33;101994.09;5071434;27;45502;-67
2021/10/16 07:00:50;;;;;;;;;5.25;5.00;;;;;23.34;40.94;101997.94;5075633;27;46246;-66
2021/10/16 07:03:16;;;;;;;;;4.00;4.00;;;;;23.39;40.55;101995.63;5071153;27;45504;-67
2021/10/16 07:05:42;;;;;;;;;3.25;3.25;;;;;23.46;40.98;102001.09;5076617;27;45558;-67
2021/10/16 07:08:07;;;;;;;;;4.00;4.00;;;;;23.47;40.43;101997.47;5075824;27;45579;-67
2021/10/16 07:10:33;;;;;;;;;3.50;3.50;;;;;23.53;40.62;102007.47;5074503;27;46281;-68
2021/10/16 07:13:03;;;;;;;;;4.00;4.00;;;;;23.56;40.51;102003.66;5075687;27;45609;-67
2021/10/16 07:15:28;;;;;;;;;4.00;4.00;;;;;23.61;40.43;102006.66;5069195;27;45338;-68
2021/10/16 07:17:54;;;;;;;;;4.75;4.75;;;;;23.65;40.73;102004.50;5076901;27;45432;-67
2021/10/16 07:20:19;;;;;;;;;5.25;3.75;;;;;23.63;40.55;101994.03;5070493;27;45520;-67
2021/10/16 07:22:45;;;;;;;;;5.50;5.50;;;;;23.73;40.30;102009.84;5074398;27;45531;-67
2021/10/16 07:25:11;;;;;;;;;5.00;5.00;;;;;23.70;40.46;101994.22;5073899;27;45423;-67
2021/10/16 07:27:36;;;;;;;;;4.00;4.00;;;;;23.83;40.08;102007.88;5076337;27;45535;-68
2021/10/16 07:30:03;;;;;;;;;6.50;5.50;;;;;23.88;39.87;102009.19;5073813;27;46319;-68
2021/10/16 07:32:28;;;;;;;;;5.25;5.00;;;;;24.03;39.82;102017.34;5076004;27;45415;-68
2021/10/16 07:34:53;;;;;;;;;5.00;5.00;;;;;24.11;39.76;102020.00;5075452;27;45495;-68
2021/10/16 07:37:19;;;;;;;;;9.00;7.00;;;;;24.18;39.22;102013.03;5074561;27;45491;-69
2021/10/16 07:39:44;;;;;;;;;7.00;7.00;;;;;24.23;39.48;102015.16;5076098;27;45407;-68
2021/10/16 07:42:09;;;;;;;;;6.00;6.00;;;;;24.34;39.40;102018.53;5074131;27;45595;-69
2021/10/16 07:44:35;;;;;;;;;6.75;5.75;;;;;24.46;38.80;102019.84;5078616;27;45463;-68
2021/10/16 07:47:00;;;;;;;;;8.75;6.75;;;;;24.59;38.59;102024.63;5079585;27;45434;-68
2021/10/16 07:49:26;;;;;;;;;9.00;9.00;;;;;24.71;38.36;102021.63;5079130;27;46251;-69
2021/10/16 07:51:51;;;;;;;;;9.50;9.50;;;;;24.80;38.17;102017.94;5078498;27;45416;-68
2021/10/16 07:54:18;;;;;;;;;14.00;12.00;;;;;24.82;37.80;102012.47;5075838;27;45523;-68
2021/10/16 07:56:44;;;;;;;;;14.00;10.00;;;;;25.01;38.00;102032.53;5076555;27;45308;-68
2021/10/16 07:59:09;;;;;;;;;10.75;10.25;;;;;25.08;37.81;102022.06;5078993;27;47273;-69
2021/10/16 08:01:34;;;;;;;;;13.50;10.50;;;;;25.18;37.50;102027.16;5076715;27;45569;-68
2021/10/16 08:04:00;;;;;;;;;11.75;10.25;;;;;25.25;37.42;102030.78;5058294;28;45451;-68
2021/10/16 08:06:25;;;;;;;;;10.00;10.00;;;;;25.30;37.53;102022.28;5077433;27;45383;-68
2021/10/16 08:08:50;;;;;;;;;11.00;11.00;;;;;25.39;37.12;102042.56;5077231;27;46406;-68
2021/10/16 08:11:16;;;;;;;;;14.75;12.00;;;;;25.45;37.20;102037.53;5075786;27;49940;-68
2021/10/16 08:13:41;;;;;;;;;12.50;11.50;;;;;25.49;36.16;102039.69;5076461;27;45472;-67
2021/10/16 08:16:06;;;;;;;;;19.50;16.50;;;;;25.37;35.36;102041.88;5077367;27;45582;-67
2021/10/16 08:18:32;;;;;;;;;15.75;15.75;;;;;25.11;35.42;102042.19;5077705;27;46985;-67
2021/10/16 08:20:57;;;;;;;;;14.50;14.50;;;;;24.80;35.37;102033.09;5077080;27;45497;-67
2021/10/16 08:23:23;;;;;;;;;16.25;14.00;;;;;24.52;35.67;102035.13;5076297;27;45424;-67
2021/10/16 08:25:48;;;;;;;;;11.75;11.00;;;;;24.31;36.11;102043.63;5078408;27;45520;-67
2021/10/16 08:28:15;;;;;;;;;14.50;14.50;;;;;24.06;35.65;102031.13;5077534;27;46192;-67
2021/10/16 08:30:50;;;;;;;;;14.25;12.50;;;;;23.85;36.26;102034.25;5077823;27;45463;-67
2021/10/16 08:33:20;;;;;;;;;14.00;13.75;;;;;23.59;36.66;102036.03;5076457;27;45412;-67
2021/10/16 08:35:45;;;;;;;;;12.50;12.50;;;;;23.37;36.76;102029.44;5076931;27;45518;-67
2021/10/16 08:38:11;;;;;;;;;13.25;12.75;;;;;23.20;36.94;102033.88;5074320;27;46966;-67
2021/10/16 08:40:37;;;;;;;;;9.50;9.50;;;;;23.01;36.93;102028.63;5074978;27;45750;-67
2021/10/16 08:43:03;;;;;;;;;14.25;11.75;;;;;22.92;37.13;102034.91;5072844;27;45672;-67
2021/10/16 08:45:28;;;;;;;;;12.75;10.00;;;;;22.62;37.19;102012.13;5081884;27;45505;-67
2021/10/16 08:47:54;;;;;;;;;13.00;12.75;;;;;22.71;37.45;102041.41;5078316;27;46179;-67
2021/10/16 08:50:21;;;;;;;;;9.50;8.50;;;;;22.60;37.57;102042.47;5075614;27;45792;-67
2021/10/16 08:52:46;;;;;;;;;13.25;9.75;;;;;22.54;37.41;102048.38;5077814;27;45317;-67
2021/10/16 08:55:13;;;;;;;;;10.00;10.00;;;;;22.48;37.42;102045.34;5077508;27;45414;-67
2021/10/16 08:57:38;;;;;;;;;10.50;8.75;;;;;22.36;37.13;102044.78;5081766;27;46262;-67
2021/10/16 09:00:49;;;;;;;;;10.50;9.25;;;;;22.24;37.63;102040.69;5074530;27;45615;-67
2021/10/16 09:03:14;;;;;;;;;8.25;8.25;;;;;22.10;37.72;102044.69;5080548;27;45404;-67
2021/10/16 09:05:39;;;;;;;;;11.00;10.00;;;;;22.01;38.02;102035.84;5073792;27;45522;-67
2021/10/16 09:08:05;;;;;;;;;13.50;12.00;;;;;21.93;38.27;102039.25;5073232;27;46854;-67
2021/10/16 09:10:30;;;;;;;;;11.50;11.50;;;;;21.85;37.79;102046.13;5075681;27;45478;-67
2021/10/16 09:12:57;;;;;;;;;10.75;10.00;;;;;21.80;38.27;102052.84;5079144;27;45360;-67
2021/10/16 09:15:24;;;;;;;;;10.25;9.00;;;;;21.74;38.30;102051.63;5053400;28;45900;-67
2021/10/16 09:18:06;;;;;;;;;12.00;12.00;;;;;21.72;38.11;102043.81;5087013;27;46244;-67
2021/10/16 09:20:36;;;;;;;;;15.50;10.75;;;;;21.56;38.37;102035.69;5074345;27;45515;-67
2021/10/16 09:23:09;;;;;;;;;12.00;10.00;;;;;21.60;38.60;102042.34;5076286;27;45439;-67
2021/10/16 09:25:35;;;;;;;;;10.25;10.25;;;;;21.50;38.14;102037.94;5075974;27;45606;-67
2021/10/16 09:28:18;;;;;;;;;12.50;11.00;;;;;21.49;38.78;102041.56;5078301;27;46080;-66
2021/10/16 09:30:45;;;;;;;;;13.25;10.25;;;;;21.47;38.63;102040.88;5073240;27;45352;-67
2021/10/16 09:33:10;;;;;;;;;11.25;8.00;;;;;;;;5074327;27;45473;-67
2021/10/16 09:35:36;;;;;;;;;8.75;8.00;;;;;21.30;38.44;102034.56;5053840;28;47512;-67
2021/10/16 09:38:01;;;;;;;;;11.00;9.00;;;;;21.29;38.89;102031.06;5072542;27;45446;-67
2021/10/16 09:40:40;;;;;;;;;9.50;8.25;;;;;21.32;38.97;102045.84;5070390;27;45518;-68
2021/10/16 09:43:23;;;;;;;;;6.75;6.75;;;;;21.29;39.13;102040.81;5072227;27;45933;-66
2021/10/16 09:46:12;;;;;;;;;7.25;7.00;;;;;21.19;38.84;102025.00;5074258;27;45530;-67
2021/10/16 09:48:37;;;;;;;;;7.00;7.00;;;;;21.22;38.84;102031.81;5050577;27;47294;-67
2021/10/16 09:51:03;;;;;;;;;10.00;8.00;;;;;21.22;38.62;102037.09;5070743;27;45457;-67
2021/10/16 09:53:29;;;;;;;;;9.50;9.50;;;;;21.18;39.25;102036.56;5074143;27;45582;-68
2021/10/16 09:55:55;;;;;;;;;10.25;10.00;;;;;21.20;39.33;102037.25;5075183;27;45352;-67
2021/10/16 09:58:22;;;;;;;;;8.75;8.75;;;;;21.24;39.32;102043.91;5070527;27;46306;-68
2021/10/16 10:00:52;;;;;;;;;10.50;8.25;;;;;21.26;39.13;102049.09;5076006;27;45446;-68
2021/10/16 10:03:22;;;;;;;;;10.00;10.00;;;;;21.29;39.58;102054.06;5074049;27;45733;-68
2021/10/16 10:05:49;;;;;;;;;12.00;11.25;;;;;21.27;39.62;102046.28;5075350;27;45285;-67
2021/10/16 10:08:17;;;;;;;;;9.25;8.75;;;;;21.29;39.49;102051.41;5073707;27;45600;-67
2021/10/16 10:10:43;;;;;;;;;9.75;9.75;;;;;21.28;39.38;102041.81;5053691;27;45515;-67
2021/10/16 10:13:09;;;;;;;;;11.75;10.50;;;;;21.27;39.28;102043.63;5074985;27;45533;-67
2021/10/16 10:15:34;;;;;;;;;11.00;8.75;;;;;21.22;39.40;102051.16;5069979;27;45559;-67
2021/10/16 10:18:23;;;;;;;;;12.00;10.00;;;;;21.17;39.36;102042.84;5073770;27;47036;-67
2021/10/16 10:20:47;;;;;;;;;15.25;13.50;;;;;21.19;39.24;102062.03;5073059;27;45522;-67
2021/10/16 10:23:20;;;;;;;;;10.50;10.00;;;;;21.18;39.38;102066.50;5073554;27;45546;-67
2021/10/16 10:25:45;;;;;;;;;10.50;10.50;;;;;21.10;39.37;102044.41;5071744;27;45357;-67
2021/10/16 10:28:11;;;;;;;;;11.25;10.25;;;;;21.27;39.52;102056.03;5073673;27;45475;-67
2021/10/16 10:30:36;;;;;;;;;14.00;10.50;;;;;21.27;39.35;102054.22;5073618;27;45487;-68
2021/10/16 10:33:20;;;;;;;;;12.50;10.00;;;;;21.29;39.30;102051.41;5071680;27;45424;-67
2021/10/16 10:36:03;;;;;;;;;12.75;11.25;;;;;21.33;39.31;102042.22;5069734;27;45571;-68
2021/10/16 10:38:32;;;;;;;;;9.50;8.25;;;;;21.19;39.41;102001.16;5073250;27;46427;-68
2021/10/16 10:40:58;;;;;;;;;9.00;9.00;;;;;21.59;39.46;102043.34;5070557;27;45535;-67
2021/10/16 10:43:40;;;;;;;;;10.50;9.00;;;;;21.63;39.02;102024.34;5074784;27;45222;-68
2021/10/16 10:46:07;;;;;;;;;7.75;6.25;;;;;21.83;39.03;102034.00;5075344;27;45434;-69
2021/10/16 10:48:44;;;;;;;;;9.00;8.75;;;;;22.00;38.75;102031.53;5071222;27;45450;-69
2021/10/16 10:51:09;;;;;;;;;7.00;7.00;;;;;22.10;39.20;102032.28;5067126;27;45467;-69
2021/10/16 10:53:37;;;;;;;;;8.25;6.75;;;;;22.20;38.92;102028.75;5076781;27;45917;-68
2021/10/16 10:56:03;;;;;;;;;7.75;6.50;;;;;22.27;39.01;102030.63;5076152;27;45703;-69
2021/10/16 10:58:51;;;;;;;;;12.00;11.75;;;;;22.37;39.11;102035.84;5074445;27;47345;-68
2021/10/16 11:01:54;;;;;;;;;14.00;13.25;;;;;22.44;38.70;102024.59;5071072;27;45788;-69
2021/10/16 11:04:42;;;;;;;;;17.50;15.50;;;;;22.57;38.47;102033.00;5064707;27;45434;-69
2021/10/16 11:07:11;;;;;;;;;17.25;17.00;;;;;22.63;38.55;102028.91;5074916;27;45411;-69
2021/10/16 11:09:38;;;;;;;;;15.75;15.75;;;;;22.71;38.53;102028.16;5075496;27;46458;-69
2021/10/16 11:12:04;;;;;;;;;12.50;12.25;;;;;22.77;39.04;102024.84;5073797;27;45514;-68
2021/10/16 11:14:35;;;;;;;;;13.25;13.25;;;;;22.82;39.09;102025.22;5072971;27;45415;-68
2021/10/16 11:17:03;;;;;;;;;7.50;7.50;;;;;22.87;38.98;102021.28;5069125;27;45348;-69
2021/10/16 11:19:29;;;;;;;;;10.00;10.00;;;;;22.91;38.57;102022.63;5087415;27;46270;-68